sensor_id;sensor_type;location;lat;lon;timestamp;P1;durP1;ratioP1;P2;durP2;ratioP2
17967;SDS011;9109;48.050;11.696;2022-08-21T03:52:13;1.40;;;1.10;;
17967;SDS011;9109;48.050;11.696;2022-08-21T03:56:10;2.78;;;1.30;;
17967;SDS011;9109;48.050;11.696;2022-08-21T04:00:49;5.90;;;1.33;;
17967;SDS011;9109;48.050;11.696;2022-08-21T04:15:38;6.45;;;1.15;;
17967;SDS011;9109;48.050;11.696;2022-08-21T04:18:46;2.50;;;1.20;;
17967;SDS011;9109;48.050;11.696;2022-08-21T04:26:43;2.33;;;1.20;;
17967;SDS011;9109;48.050;11.696;2022-08-21T04:33:56;1.25;;;0.98;;
17967;SDS011;9109;48.050;11.696;2022-08-21T04:37:52;4.82;;;1.00;;
17967;SDS011;9109;48.050;11.696;2022-08-21T04:41:29;1.63;;;1.10;;
17967;SDS011;9109;48.050;11.696;2022-08-21T04:57:18;2.03;;;1.25;;
17967;SDS011;9109;48.050;11.696;2022-08-21T05:04:55;4.90;;;1.13;;
17967;SDS011;9109;48.050;11.696;2022-08-21T05:08:17;1.60;;;1.10;;
17967;SDS011;9109;48.050;11.696;2022-08-21T05:11:41;3.17;;;1.20;;
17967;SDS011;9109;48.050;11.696;2022-08-21T05:23:05;2.17;;;1.13;;
17967;SDS011;9109;48.050;11.696;2022-08-21T05:27:00;1.95;;;1.05;;
17967;SDS011;9109;48.050;11.696;2022-08-21T05:30:36;1.48;;;1.10;;
17967;SDS011;9109;48.050;11.696;2022-08-21T05:34:13;1.73;;;1.10;;
17967;SDS011;9109;48.050;11.696;2022-08-21T05:37:44;7.03;;;1.50;;
17967;SDS011;9109;48.050;11.696;2022-08-21T05:41:36;2.03;;;1.30;;
17967;SDS011;9109;48.050;11.696;2022-08-21T05:45:27;9.48;;;1.30;;
17967;SDS011;9109;48.050;11.696;2022-08-21T05:49:14;2.63;;;1.10;;
17967;SDS011;9109;48.050;11.696;2022-08-21T05:52:54;4.00;;;1.13;;
17967;SDS011;9109;48.050;11.696;2022-08-21T05:56:50;1.58;;;1.30;;
17967;SDS011;9109;48.050;11.696;2022-08-21T06:04:42;2.75;;;1.42;;
17967;SDS011;9109;48.050;11.696;2022-08-21T06:24:02;1.20;;;1.05;;
17967;SDS011;9109;48.050;11.696;2022-08-21T06:39:37;3.55;;;1.20;;
17967;SDS011;9109;48.050;11.696;2022-08-21T06:43:08;2.25;;;1.40;;
17967;SDS011;9109;48.050;11.696;2022-08-21T06:58:41;1.80;;;1.40;;
17967;SDS011;9109;48.050;11.696;2022-08-21T07:01:43;2.70;;;1.80;;
17967;SDS011;9109;48.050;11.696;2022-08-21T07:04:46;6.65;;;1.10;;
17967;SDS011;9109;48.050;11.696;2022-08-21T07:07:48;2.40;;;1.52;;
17967;SDS011;9109;48.050;11.696;2022-08-21T07:10:50;8.75;;;2.05;;
17967;SDS011;9109;48.050;11.696;2022-08-21T07:13:54;15.25;;;1.77;;
17967;SDS011;9109;48.050;11.696;2022-08-21T07:16:56;5.75;;;1.48;;
17967;SDS011;9109;48.050;11.696;2022-08-21T07:19:58;2.63;;;1.50;;
17967;SDS011;9109;48.050;11.696;2022-08-21T07:23:02;5.90;;;1.80;;
17967;SDS011;9109;48.050;11.696;2022-08-21T07:26:06;8.70;;;1.92;;
17967;SDS011;9109;48.050;11.696;2022-08-21T07:29:10;2.30;;;1.80;;
17967;SDS011;9109;48.050;11.696;2022-08-21T07:32:12;1.70;;;1.25;;
17967;SDS011;9109;48.050;11.696;2022-08-21T07:35:14;2.50;;;1.42;;
17967;SDS011;9109;48.050;11.696;2022-08-21T07:38:16;4.50;;;1.98;;
17967;SDS011;9109;48.050;11.696;2022-08-21T07:41:20;2.83;;;1.83;;
17967;SDS011;9109;48.050;11.696;2022-08-21T07:44:25;2.22;;;1.70;;
17967;SDS011;9109;48.050;11.696;2022-08-21T07:47:27;1.50;;;1.20;;
17967;SDS011;9109;48.050;11.696;2022-08-21T07:50:29;5.53;;;2.13;;
17967;SDS011;9109;48.050;11.696;2022-08-21T07:53:31;3.92;;;2.17;;
17967;SDS011;9109;48.050;11.696;2022-08-21T07:56:33;4.18;;;2.33;;
17967;SDS011;9109;48.050;11.696;2022-08-21T07:59:36;4.97;;;2.20;;
17967;SDS011;9109;48.050;11.696;2022-08-21T08:02:38;5.80;;;1.98;;
17967;SDS011;9109;48.050;11.696;2022-08-21T08:05:41;5.40;;;1.80;;
17967;SDS011;9109;48.050;11.696;2022-08-21T08:08:43;2.38;;;1.90;;
17967;SDS011;9109;48.050;11.696;2022-08-21T08:11:45;6.32;;;2.33;;
17967;SDS011;9109;48.050;11.696;2022-08-21T08:14:48;5.05;;;2.63;;
17967;SDS011;9109;48.050;11.696;2022-08-21T08:17:51;2.95;;;2.33;;
17967;SDS011;9109;48.050;11.696;2022-08-21T08:20:54;4.25;;;2.50;;
17967;SDS011;9109;48.050;11.696;2022-08-21T08:23:56;8.52;;;2.58;;
17967;SDS011;9109;48.050;11.696;2022-08-21T08:26:58;3.70;;;2.28;;
17967;SDS011;9109;48.050;11.696;2022-08-21T08:30:02;4.00;;;2.10;;
17967;SDS011;9109;48.050;11.696;2022-08-21T08:33:04;5.65;;;2.38;;
17967;SDS011;9109;48.050;11.696;2022-08-21T08:36:11;3.63;;;2.30;;
17967;SDS011;9109;48.050;11.696;2022-08-21T08:39:14;10.57;;;2.30;;
17967;SDS011;9109;48.050;11.696;2022-08-21T08:42:17;7.20;;;2.55;;
17967;SDS011;9109;48.050;11.696;2022-08-21T08:45:36;4.95;;;2.35;;
17967;SDS011;9109;48.050;11.696;2022-08-21T08:48:43;9.80;;;2.67;;
17967;SDS011;9109;48.050;11.696;2022-08-21T08:51:53;4.70;;;2.35;;
17967;SDS011;9109;48.050;11.696;2022-08-21T08:55:03;4.38;;;2.47;;
17967;SDS011;9109;48.050;11.696;2022-08-21T08:58:07;3.47;;;2.03;;
17967;SDS011;9109;48.050;11.696;2022-08-21T09:01:23;3.20;;;2.28;;
17967;SDS011;9109;48.050;11.696;2022-08-21T09:04:26;6.10;;;2.00;;
17967;SDS011;9109;48.050;11.696;2022-08-21T09:07:35;3.22;;;2.50;;
17967;SDS011;9109;48.050;11.696;2022-08-21T09:10:44;4.63;;;2.42;;
17967;SDS011;9109;48.050;11.696;2022-08-21T09:13:55;5.38;;;2.28;;
17967;SDS011;9109;48.050;11.696;2022-08-21T09:17:10;9.13;;;2.35;;
17967;SDS011;9109;48.050;11.696;2022-08-21T09:20:22;5.85;;;2.22;;
17967;SDS011;9109;48.050;11.696;2022-08-21T09:23:33;5.40;;;2.25;;
17967;SDS011;9109;48.050;11.696;2022-08-21T09:26:47;2.90;;;1.90;;
17967;SDS011;9109;48.050;11.696;2022-08-21T09:29:55;2.85;;;2.30;;
17967;SDS011;9109;48.050;11.696;2022-08-21T09:32:59;3.00;;;1.90;;
17967;SDS011;9109;48.050;11.696;2022-08-21T09:36:01;5.40;;;1.92;;
17967;SDS011;9109;48.050;11.696;2022-08-21T09:39:04;6.30;;;2.25;;
17967;SDS011;9109;48.050;11.696;2022-08-21T09:42:07;6.03;;;2.53;;
17967;SDS011;9109;48.050;11.696;2022-08-21T09:45:13;3.38;;;2.50;;
17967;SDS011;9109;48.050;11.696;2022-08-21T09:48:20;4.03;;;2.05;;
17967;SDS011;9109;48.050;11.696;2022-08-21T09:51:25;6.93;;;2.50;;
17967;SDS011;9109;48.050;11.696;2022-08-21T09:54:30;4.82;;;2.53;;
17967;SDS011;9109;48.050;11.696;2022-08-21T09:57:35;5.07;;;2.20;;
17967;SDS011;9109;48.050;11.696;2022-08-21T10:00:39;6.43;;;2.90;;
17967;SDS011;9109;48.050;11.696;2022-08-21T10:03:42;4.15;;;2.65;;
17967;SDS011;9109;48.050;11.696;2022-08-21T10:06:44;3.13;;;2.58;;
17967;SDS011;9109;48.050;11.696;2022-08-21T10:09:57;4.55;;;2.85;;
17967;SDS011;9109;48.050;11.696;2022-08-21T10:13:01;6.75;;;2.83;;
17967;SDS011;9109;48.050;11.696;2022-08-21T10:16:13;4.25;;;2.85;;
17967;SDS011;9109;48.050;11.696;2022-08-21T10:19:26;6.38;;;2.90;;
17967;SDS011;9109;48.050;11.696;2022-08-21T10:22:39;4.55;;;2.55;;
17967;SDS011;9109;48.050;11.696;2022-08-21T10:25:48;3.40;;;2.60;;
17967;SDS011;9109;48.050;11.696;2022-08-21T10:28:59;5.50;;;2.55;;
17967;SDS011;9109;48.050;11.696;2022-08-21T10:32:10;2.72;;;2.20;;
17967;SDS011;9109;48.050;11.696;2022-08-21T10:35:24;6.57;;;2.72;;
17967;SDS011;9109;48.050;11.696;2022-08-21T10:38:38;5.13;;;2.80;;
17967;SDS011;9109;48.050;11.696;2022-08-21T10:42:19;5.10;;;3.20;;
17967;SDS011;9109;48.050;11.696;2022-08-21T10:45:42;7.55;;;2.63;;
17967;SDS011;9109;48.050;11.696;2022-08-21T10:48:54;6.30;;;2.67;;
17967;SDS011;9109;48.050;11.696;2022-08-21T10:52:08;5.43;;;2.80;;
17967;SDS011;9109;48.050;11.696;2022-08-21T10:55:20;2.75;;;2.05;;
17967;SDS011;9109;48.050;11.696;2022-08-21T10:58:25;5.20;;;2.50;;
17967;SDS011;9109;48.050;11.696;2022-08-21T11:01:32;6.93;;;2.20;;
17967;SDS011;9109;48.050;11.696;2022-08-21T11:04:40;3.17;;;2.13;;
17967;SDS011;9109;48.050;11.696;2022-08-21T11:07:53;3.20;;;2.00;;
17967;SDS011;9109;48.050;11.696;2022-08-21T11:10:59;3.55;;;2.22;;
17967;SDS011;9109;48.050;11.696;2022-08-21T11:14:08;3.47;;;2.22;;
17967;SDS011;9109;48.050;11.696;2022-08-21T11:17:14;6.18;;;2.28;;
17967;SDS011;9109;48.050;11.696;2022-08-21T11:20:21;6.13;;;2.40;;
17967;SDS011;9109;48.050;11.696;2022-08-21T11:23:31;6.00;;;2.22;;
17967;SDS011;9109;48.050;11.696;2022-08-21T11:26:41;2.55;;;2.17;;
17967;SDS011;9109;48.050;11.696;2022-08-21T11:29:47;4.82;;;2.30;;
17967;SDS011;9109;48.050;11.696;2022-08-21T11:32:57;3.75;;;2.30;;
17967;SDS011;9109;48.050;11.696;2022-08-21T11:36:09;4.28;;;2.40;;
17967;SDS011;9109;48.050;11.696;2022-08-21T11:39:22;5.40;;;2.22;;
17967;SDS011;9109;48.050;11.696;2022-08-21T11:42:33;3.38;;;2.00;;
17967;SDS011;9109;48.050;11.696;2022-08-21T11:45:42;5.88;;;2.50;;
17967;SDS011;9109;48.050;11.696;2022-08-21T11:48:48;4.78;;;2.20;;
17967;SDS011;9109;48.050;11.696;2022-08-21T11:52:07;5.82;;;2.17;;
17967;SDS011;9109;48.050;11.696;2022-08-21T11:55:18;2.40;;;1.60;;
17967;SDS011;9109;48.050;11.696;2022-08-21T11:58:25;12.82;;;2.53;;
17967;SDS011;9109;48.050;11.696;2022-08-21T12:01:32;5.65;;;2.55;;
17967;SDS011;9109;48.050;11.696;2022-08-21T12:04:42;2.80;;;1.90;;
17967;SDS011;9109;48.050;11.696;2022-08-21T12:07:46;3.35;;;2.00;;
17967;SDS011;9109;48.050;11.696;2022-08-21T12:11:02;3.58;;;2.25;;
17967;SDS011;9109;48.050;11.696;2022-08-21T12:14:12;4.90;;;2.33;;
17967;SDS011;9109;48.050;11.696;2022-08-21T12:17:17;4.93;;;2.10;;
17967;SDS011;9109;48.050;11.696;2022-08-21T12:20:25;2.88;;;2.05;;
17967;SDS011;9109;48.050;11.696;2022-08-21T12:23:43;6.60;;;3.50;;
17967;SDS011;9109;48.050;11.696;2022-08-21T12:26:49;5.07;;;2.22;;
17967;SDS011;9109;48.050;11.696;2022-08-21T12:29:54;2.50;;;1.95;;
17967;SDS011;9109;48.050;11.696;2022-08-21T12:33:01;3.00;;;2.22;;
17967;SDS011;9109;48.050;11.696;2022-08-21T12:36:05;4.57;;;2.00;;
17967;SDS011;9109;48.050;11.696;2022-08-21T12:39:13;4.07;;;2.20;;
17967;SDS011;9109;48.050;11.696;2022-08-21T12:42:22;7.90;;;2.25;;
17967;SDS011;9109;48.050;11.696;2022-08-21T12:45:31;3.13;;;2.08;;
17967;SDS011;9109;48.050;11.696;2022-08-21T12:48:35;5.03;;;2.03;;
17967;SDS011;9109;48.050;11.696;2022-08-21T12:51:47;2.45;;;1.75;;
17967;SDS011;9109;48.050;11.696;2022-08-21T12:54:54;2.78;;;1.85;;
17967;SDS011;9109;48.050;11.696;2022-08-21T12:57:57;3.55;;;2.00;;
17967;SDS011;9109;48.050;11.696;2022-08-21T13:01:02;3.08;;;2.13;;
17967;SDS011;9109;48.050;11.696;2022-08-21T13:04:06;2.40;;;1.77;;
17967;SDS011;9109;48.050;11.696;2022-08-21T13:07:11;4.38;;;1.95;;
17967;SDS011;9109;48.050;11.696;2022-08-21T13:10:16;3.38;;;2.03;;
17967;SDS011;9109;48.050;11.696;2022-08-21T13:13:24;2.35;;;2.03;;
17967;SDS011;9109;48.050;11.696;2022-08-21T13:16:27;2.83;;;2.20;;
17967;SDS011;9109;48.050;11.696;2022-08-21T13:19:31;3.15;;;2.35;;
17967;SDS011;9109;48.050;11.696;2022-08-21T13:22:39;3.22;;;2.17;;
17967;SDS011;9109;48.050;11.696;2022-08-21T13:25:42;5.30;;;2.10;;
17967;SDS011;9109;48.050;11.696;2022-08-21T13:28:45;5.10;;;2.55;;
17967;SDS011;9109;48.050;11.696;2022-08-21T13:31:49;6.80;;;2.70;;
17967;SDS011;9109;48.050;11.696;2022-08-21T13:34:54;3.63;;;2.08;;
17967;SDS011;9109;48.050;11.696;2022-08-21T13:37:58;4.75;;;2.28;;
17967;SDS011;9109;48.050;11.696;2022-08-21T13:41:03;3.45;;;2.20;;
17967;SDS011;9109;48.050;11.696;2022-08-21T13:44:15;3.25;;;2.00;;
17967;SDS011;9109;48.050;11.696;2022-08-21T13:47:19;2.83;;;2.05;;
17967;SDS011;9109;48.050;11.696;2022-08-21T13:50:22;4.00;;;2.20;;
17967;SDS011;9109;48.050;11.696;2022-08-21T13:53:27;3.53;;;2.08;;
17967;SDS011;9109;48.050;11.696;2022-08-21T13:56:31;10.05;;;2.60;;
17967;SDS011;9109;48.050;11.696;2022-08-21T13:59:43;3.22;;;2.20;;
17967;SDS011;9109;48.050;11.696;2022-08-21T14:02:46;2.90;;;2.17;;
17967;SDS011;9109;48.050;11.696;2022-08-21T14:05:51;4.60;;;2.40;;
17967;SDS011;9109;48.050;11.696;2022-08-21T14:08:53;3.88;;;2.20;;
17967;SDS011;9109;48.050;11.696;2022-08-21T14:11:59;4.60;;;2.25;;
17967;SDS011;9109;48.050;11.696;2022-08-21T14:15:06;3.42;;;2.22;;
17967;SDS011;9109;48.050;11.696;2022-08-21T14:18:14;3.22;;;2.40;;
17967;SDS011;9109;48.050;11.696;2022-08-21T14:21:28;4.50;;;2.20;;
17967;SDS011;9109;48.050;11.696;2022-08-21T14:24:38;2.40;;;2.20;;
17967;SDS011;9109;48.050;11.696;2022-08-21T14:27:43;2.65;;;2.00;;
17967;SDS011;9109;48.050;11.696;2022-08-21T14:30:54;5.75;;;1.90;;
17967;SDS011;9109;48.050;11.696;2022-08-21T14:33:57;3.65;;;2.42;;
17967;SDS011;9109;48.050;11.696;2022-08-21T14:37:00;2.58;;;1.90;;
17967;SDS011;9109;48.050;11.696;2022-08-21T14:40:02;5.40;;;2.28;;
17967;SDS011;9109;48.050;11.696;2022-08-21T14:43:05;3.42;;;2.30;;
17967;SDS011;9109;48.050;11.696;2022-08-21T14:46:09;9.43;;;2.83;;
17967;SDS011;9109;48.050;11.696;2022-08-21T14:49:12;4.43;;;2.08;;
17967;SDS011;9109;48.050;11.696;2022-08-21T14:52:15;4.00;;;2.40;;
17967;SDS011;9109;48.050;11.696;2022-08-21T14:55:18;6.45;;;2.20;;
17967;SDS011;9109;48.050;11.696;2022-08-21T14:58:20;4.55;;;2.28;;
17967;SDS011;9109;48.050;11.696;2022-08-21T15:01:25;3.75;;;2.30;;
17967;SDS011;9109;48.050;11.696;2022-08-21T15:04:27;3.30;;;2.15;;
17967;SDS011;9109;48.050;11.696;2022-08-21T15:07:29;3.65;;;2.10;;
17967;SDS011;9109;48.050;11.696;2022-08-21T15:10:31;3.17;;;2.00;;
17967;SDS011;9109;48.050;11.696;2022-08-21T15:13:35;3.40;;;2.05;;
17967;SDS011;9109;48.050;11.696;2022-08-21T15:16:39;4.32;;;2.20;;
17967;SDS011;9109;48.050;11.696;2022-08-21T15:19:41;4.50;;;2.30;;
17967;SDS011;9109;48.050;11.696;2022-08-21T15:22:43;4.45;;;2.30;;
17967;SDS011;9109;48.050;11.696;2022-08-21T15:25:46;2.78;;;1.85;;
17967;SDS011;9109;48.050;11.696;2022-08-21T15:28:50;2.97;;;2.08;;
17967;SDS011;9109;48.050;11.696;2022-08-21T15:31:54;5.32;;;2.28;;
17967;SDS011;9109;48.050;11.696;2022-08-21T15:34:58;3.55;;;2.10;;
17967;SDS011;9109;48.050;11.696;2022-08-21T15:38:00;4.22;;;2.30;;
17967;SDS011;9109;48.050;11.696;2022-08-21T15:41:02;4.22;;;2.15;;
17967;SDS011;9109;48.050;11.696;2022-08-21T15:44:04;4.65;;;1.90;;
17967;SDS011;9109;48.050;11.696;2022-08-21T15:47:08;4.57;;;2.13;;
17967;SDS011;9109;48.050;11.696;2022-08-21T15:50:14;4.57;;;2.00;;
17967;SDS011;9109;48.050;11.696;2022-08-21T15:53:16;4.65;;;2.15;;
17967;SDS011;9109;48.050;11.696;2022-08-21T15:56:20;2.53;;;1.85;;
17967;SDS011;9109;48.050;11.696;2022-08-21T15:59:23;3.60;;;2.03;;
17967;SDS011;9109;48.050;11.696;2022-08-21T16:02:29;3.63;;;2.00;;
17967;SDS011;9109;48.050;11.696;2022-08-21T16:05:32;4.75;;;2.15;;
17967;SDS011;9109;48.050;11.696;2022-08-21T16:08:34;2.83;;;1.85;;
17967;SDS011;9109;48.050;11.696;2022-08-21T16:11:36;4.70;;;2.15;;
17967;SDS011;9109;48.050;11.696;2022-08-21T16:14:41;6.32;;;2.78;;
17967;SDS011;9109;48.050;11.696;2022-08-21T16:17:45;3.55;;;2.40;;
17967;SDS011;9109;48.050;11.696;2022-08-21T16:20:48;4.20;;;2.40;;
17967;SDS011;9109;48.050;11.696;2022-08-21T16:23:50;3.95;;;2.42;;
17967;SDS011;9109;48.050;11.696;2022-08-21T16:26:52;6.50;;;2.40;;
17967;SDS011;9109;48.050;11.696;2022-08-21T16:29:54;6.25;;;2.55;;
17967;SDS011;9109;48.050;11.696;2022-08-21T16:32:58;3.33;;;2.22;;
17967;SDS011;9109;48.050;11.696;2022-08-21T16:36:00;3.90;;;2.33;;
17967;SDS011;9109;48.050;11.696;2022-08-21T16:39:02;2.90;;;2.25;;
17967;SDS011;9109;48.050;11.696;2022-08-21T16:42:04;3.85;;;2.30;;
17967;SDS011;9109;48.050;11.696;2022-08-21T16:45:07;7.55;;;2.58;;
17967;SDS011;9109;48.050;11.696;2022-08-21T16:48:12;4.28;;;2.40;;
17967;SDS011;9109;48.050;11.696;2022-08-21T16:51:14;4.93;;;2.30;;
17967;SDS011;9109;48.050;11.696;2022-08-21T16:54:17;4.15;;;2.45;;
17967;SDS011;9109;48.050;11.696;2022-08-21T16:57:19;8.27;;;2.40;;
17967;SDS011;9109;48.050;11.696;2022-08-21T17:00:21;4.55;;;2.20;;
17967;SDS011;9109;48.050;11.696;2022-08-21T17:03:25;6.22;;;2.50;;
17967;SDS011;9109;48.050;11.696;2022-08-21T17:06:31;5.43;;;2.40;;
17967;SDS011;9109;48.050;11.696;2022-08-21T17:09:33;5.10;;;2.55;;
17967;SDS011;9109;48.050;11.696;2022-08-21T17:12:35;5.75;;;2.58;;
17967;SDS011;9109;48.050;11.696;2022-08-21T17:15:37;6.40;;;2.38;;
17967;SDS011;9109;48.050;11.696;2022-08-21T17:18:41;6.53;;;2.63;;
17967;SDS011;9109;48.050;11.696;2022-08-21T17:21:43;3.78;;;2.10;;
17967;SDS011;9109;48.050;11.696;2022-08-21T17:24:45;8.27;;;2.35;;
17967;SDS011;9109;48.050;11.696;2022-08-21T17:27:47;5.85;;;2.20;;
17967;SDS011;9109;48.050;11.696;2022-08-21T17:30:50;3.20;;;2.33;;
17967;SDS011;9109;48.050;11.696;2022-08-21T17:33:56;3.95;;;2.17;;
17967;SDS011;9109;48.050;11.696;2022-08-21T17:36:57;4.70;;;2.40;;
17967;SDS011;9109;48.050;11.696;2022-08-21T17:39:59;6.22;;;2.42;;
17967;SDS011;9109;48.050;11.696;2022-08-21T17:43:04;7.40;;;2.40;;
17967;SDS011;9109;48.050;11.696;2022-08-21T17:46:09;3.92;;;2.50;;
17967;SDS011;9109;48.050;11.696;2022-08-21T17:49:15;3.35;;;2.10;;
17967;SDS011;9109;48.050;11.696;2022-08-21T17:52:19;3.58;;;2.17;;
17967;SDS011;9109;48.050;11.696;2022-08-21T17:55:24;12.05;;;2.63;;
17967;SDS011;9109;48.050;11.696;2022-08-21T17:58:31;9.63;;;2.55;;
17967;SDS011;9109;48.050;11.696;2022-08-21T18:01:34;6.72;;;2.72;;
17967;SDS011;9109;48.050;11.696;2022-08-21T18:04:41;4.75;;;2.70;;
17967;SDS011;9109;48.050;11.696;2022-08-21T18:07:43;4.07;;;2.38;;
17967;SDS011;9109;48.050;11.696;2022-08-21T18:10:46;4.35;;;2.53;;
17967;SDS011;9109;48.050;11.696;2022-08-21T18:13:53;4.78;;;2.83;;
17967;SDS011;9109;48.050;11.696;2022-08-21T18:16:59;6.65;;;2.40;;
17967;SDS011;9109;48.050;11.696;2022-08-21T18:20:03;4.50;;;2.15;;
17967;SDS011;9109;48.050;11.696;2022-08-21T18:23:07;3.35;;;2.50;;
17967;SDS011;9109;48.050;11.696;2022-08-21T18:26:09;4.72;;;2.38;;
17967;SDS011;9109;48.050;11.696;2022-08-21T18:29:13;7.10;;;3.00;;
17967;SDS011;9109;48.050;11.696;2022-08-21T18:32:21;7.32;;;2.72;;
17967;SDS011;9109;48.050;11.696;2022-08-21T18:35:26;6.15;;;2.83;;
17967;SDS011;9109;48.050;11.696;2022-08-21T18:38:29;8.10;;;2.80;;
17967;SDS011;9109;48.050;11.696;2022-08-21T18:41:31;5.65;;;3.10;;
17967;SDS011;9109;48.050;11.696;2022-08-21T18:44:33;5.55;;;2.78;;
17967;SDS011;9109;48.050;11.696;2022-08-21T18:47:39;11.20;;;2.72;;
17967;SDS011;9109;48.050;11.696;2022-08-21T18:50:44;5.78;;;3.15;;
17967;SDS011;9109;48.050;11.696;2022-08-21T18:53:59;6.65;;;3.00;;
17967;SDS011;9109;48.050;11.696;2022-08-21T18:57:01;5.68;;;3.17;;
17967;SDS011;9109;48.050;11.696;2022-08-21T19:00:04;5.30;;;2.67;;
17967;SDS011;9109;48.050;11.696;2022-08-21T19:03:10;7.18;;;2.83;;
17967;SDS011;9109;48.050;11.696;2022-08-21T19:06:14;3.92;;;2.53;;
17967;SDS011;9109;48.050;11.696;2022-08-21T19:09:16;7.80;;;3.13;;
17967;SDS011;9109;48.050;11.696;2022-08-21T19:12:19;4.03;;;2.85;;
17967;SDS011;9109;48.050;11.696;2022-08-21T19:15:25;5.00;;;3.08;;
17967;SDS011;9109;48.050;11.696;2022-08-21T19:18:27;7.07;;;3.10;;
17967;SDS011;9109;48.050;11.696;2022-08-21T19:21:33;6.57;;;2.90;;
17967;SDS011;9109;48.050;11.696;2022-08-21T19:24:35;4.65;;;2.88;;
17967;SDS011;9109;48.050;11.696;2022-08-21T19:27:37;6.85;;;3.35;;
